createdAt,value
2022-08-26T05:02:48.363Z,18.30
2022-08-26T05:05:20.633Z,18.40
2022-08-26T05:07:49.921Z,18.40
2022-08-26T05:10:18.762Z,18.40
2022-08-26T05:12:48.126Z,18.40
2022-08-26T05:15:17.620Z,18.40
2022-08-26T05:17:46.316Z,18.40
2022-08-26T05:20:16.341Z,18.50
2022-08-26T05:22:46.439Z,18.60
2022-08-26T05:25:18.530Z,18.60
2022-08-26T05:27:47.124Z,18.70
2022-08-26T05:30:16.368Z,18.80
2022-08-26T05:32:45.001Z,19.00
2022-08-26T05:35:13.717Z,19.10
2022-08-26T05:37:45.920Z,19.20
2022-08-26T05:40:14.769Z,19.30
2022-08-26T05:42:43.409Z,19.40
2022-08-26T05:45:13.061Z,19.50
2022-08-26T05:47:42.322Z,19.70
2022-08-26T05:50:11.414Z,19.80
2022-08-26T05:52:41.054Z,19.80
2022-08-26T05:55:11.051Z,19.80
2022-08-26T05:57:40.551Z,19.80
2022-08-26T06:00:12.797Z,19.80
2022-08-26T06:02:41.554Z,19.70
2022-08-26T06:05:10.304Z,19.70
2022-08-26T06:07:57.569Z,19.70
2022-08-26T06:10:34.679Z,19.70
2022-08-26T06:13:09.322Z,19.80
2022-08-26T06:15:42.292Z,19.90
2022-08-26T06:18:11.400Z,20.00
2022-08-26T06:20:43.715Z,20.00
2022-08-26T06:23:43.532Z,20.00
2022-08-26T06:26:13.726Z,20.00
2022-08-26T06:28:45.368Z,20.00
2022-08-26T06:31:15.494Z,20.10
2022-08-26T06:33:44.655Z,20.20
2022-08-26T06:36:17.426Z,20.30
2022-08-26T06:38:48.194Z,20.30
2022-08-26T06:41:20.958Z,20.30
2022-08-26T06:43:50.073Z,20.40
2022-08-26T06:46:19.388Z,20.50
2022-08-26T06:48:48.898Z,20.70
2022-08-26T06:51:18.466Z,20.90
2022-08-26T06:53:48.301Z,21.20
2022-08-26T06:56:20.105Z,21.40
2022-08-26T06:58:49.387Z,21.60
2022-08-26T07:01:19.677Z,21.80
2022-08-26T07:03:50.337Z,21.90
2022-08-26T07:06:20.272Z,22.10
2022-08-26T07:08:49.445Z,22.30
2022-08-26T07:11:20.013Z,22.40
2022-08-26T07:13:49.220Z,22.60
2022-08-26T07:16:18.753Z,22.80
2022-08-26T07:18:48.574Z,22.90
2022-08-26T07:21:18.773Z,23.00
2022-08-26T07:23:47.416Z,23.10
2022-08-26T07:26:19.981Z,23.20
2022-08-26T07:28:50.590Z,23.30
2022-08-26T07:31:23.162Z,23.40
2022-08-26T07:33:51.861Z,23.50
2022-08-26T07:36:21.373Z,23.60
2022-08-26T07:38:50.076Z,23.70
2022-08-26T07:41:22.842Z,23.80
2022-08-26T07:43:52.782Z,23.90
2022-08-26T07:46:27.158Z,23.90
2022-08-26T07:48:56.426Z,24.10
2022-08-26T07:51:25.273Z,24.20
2022-08-26T07:53:54.307Z,24.30
2022-08-26T07:56:24.391Z,24.30
2022-08-26T07:58:53.944Z,24.40
2022-08-26T08:01:23.714Z,24.50
2022-08-26T08:03:53.367Z,24.60
2022-08-26T08:06:23.286Z,24.70
2022-08-26T08:08:56.988Z,24.80
2022-08-26T08:11:28.766Z,24.90
2022-08-26T08:13:58.113Z,24.90
2022-08-26T08:16:26.840Z,24.90
2022-08-26T08:18:56.710Z,25.00
2022-08-26T08:21:28.989Z,25.10
2022-08-26T08:23:58.266Z,25.20
2022-08-26T08:26:28.241Z,25.40
2022-08-26T08:28:57.791Z,25.40
2022-08-26T08:34:16.518Z,25.60
2022-08-26T08:36:47.383Z,25.70
2022-08-26T08:39:16.231Z,25.90
2022-08-26T08:41:59.790Z,26.00
2022-08-26T08:44:29.942Z,26.00
2022-08-26T08:47:01.007Z,26.00
2022-08-26T08:49:30.785Z,26.10
2022-08-26T08:52:04.213Z,26.10
2022-08-26T08:54:33.920Z,26.10
2022-08-26T08:57:06.817Z,26.00
2022-08-26T08:59:43.459Z,26.00
2022-08-26T09:02:18.017Z,25.90
2022-08-26T09:05:04.542Z,25.80
2022-08-26T09:07:36.649Z,25.60
2022-08-26T09:10:07.452Z,25.50
2022-08-26T09:12:36.356Z,25.50
2022-08-26T09:15:07.809Z,25.50
2022-08-26T09:17:44.190Z,25.60
2022-08-26T09:20:16.001Z,25.70
2022-08-26T09:22:44.847Z,26.00
2022-08-26T09:25:15.240Z,26.20
2022-08-26T09:27:45.276Z,26.40
2022-08-26T09:30:24.486Z,26.70
2022-08-26T09:32:59.519Z,26.70
2022-08-26T09:35:31.451Z,26.70
2022-08-26T09:38:00.970Z,26.90
2022-08-26T09:40:34.470Z,27.10
2022-08-26T09:43:22.159Z,27.30
2022-08-26T09:45:59.192Z,27.50
2022-08-26T09:48:30.363Z,27.50
2022-08-26T09:51:00.244Z,27.70
2022-08-26T09:53:30.974Z,28.00
2022-08-26T09:56:14.028Z,28.10
2022-08-26T09:58:44.091Z,28.40
2022-08-26T10:01:17.901Z,28.70
2022-08-26T10:03:49.008Z,28.90
2022-08-26T10:06:24.086Z,29.00
2022-08-26T10:08:55.887Z,29.20
2022-08-26T10:11:27.420Z,29.40
2022-08-26T10:13:57.955Z,29.60
2022-08-26T10:16:31.000Z,29.80
2022-08-26T10:19:01.964Z,30.00
2022-08-26T10:21:33.947Z,30.30
2022-08-26T10:24:03.714Z,30.40
2022-08-26T10:26:39.314Z,30.50
2022-08-26T10:29:12.345Z,30.60
2022-08-26T10:31:44.247Z,30.70
2022-08-26T10:37:36.348Z,30.90
2022-08-26T10:40:08.820Z,31.10
2022-08-26T10:42:41.354Z,31.10
2022-08-26T10:45:15.298Z,31.10
2022-08-26T10:47:47.128Z,31.10
2022-08-26T10:50:18.166Z,31.10
2022-08-26T10:52:54.004Z,31.00
2022-08-26T10:55:25.848Z,30.80
2022-08-26T10:57:57.809Z,30.90
2022-08-26T11:00:47.071Z,30.90
2022-08-26T11:06:17.017Z,30.70
2022-08-26T11:08:47.876Z,30.60
2022-08-26T11:11:31.845Z,30.40
2022-08-26T11:14:02.228Z,30.30
2022-08-26T11:16:36.586Z,30.30
2022-08-26T11:19:13.071Z,30.10
2022-08-26T11:21:49.521Z,30.10
2022-08-26T11:24:37.350Z,30.10
2022-08-26T11:27:06.098Z,30.10
2022-08-26T11:29:53.580Z,30.40
2022-08-26T11:32:26.088Z,30.90
2022-08-26T11:34:57.058Z,31.30
2022-08-26T11:37:32.402Z,31.60
2022-08-26T11:40:02.853Z,31.80
2022-08-26T11:42:36.984Z,31.80
2022-08-26T11:45:18.636Z,31.70
2022-08-26T11:47:49.243Z,31.70
2022-08-26T11:50:19.899Z,31.70
2022-08-26T11:52:54.366Z,31.70
2022-08-26T11:55:24.144Z,31.80
2022-08-26T11:57:54.159Z,32.10
2022-08-26T12:00:24.338Z,32.40
2022-08-26T12:02:54.177Z,32.70
2022-08-26T12:05:29.436Z,33.00
2022-08-26T12:08:03.483Z,33.30
2022-08-26T12:10:33.832Z,33.60
2022-08-26T12:13:03.351Z,33.70
2022-08-26T12:15:33.079Z,33.90
2022-08-26T12:18:16.553Z,34.00
2022-08-26T12:20:48.413Z,34.20
2022-08-26T12:23:26.890Z,34.30
2022-08-26T12:26:04.021Z,34.50
2022-08-26T12:28:33.196Z,34.10
2022-08-26T12:31:03.011Z,33.70
2022-08-26T12:33:33.954Z,33.30
2022-08-26T12:36:03.155Z,33.50
2022-08-26T12:38:36.917Z,33.60
2022-08-26T12:41:05.725Z,33.50
2022-08-26T12:43:39.708Z,33.40
2022-08-26T12:46:09.621Z,33.40
2022-08-26T12:48:39.843Z,33.20
2022-08-26T12:51:09.286Z,33.10
2022-08-26T12:53:42.891Z,32.90
2022-08-26T12:56:22.637Z,32.70
2022-08-26T12:59:01.749Z,32.60
2022-08-26T13:01:38.083Z,32.50
2022-08-26T13:04:07.793Z,32.40
2022-08-26T13:06:36.496Z,32.30
2022-08-26T13:09:26.559Z,32.10
2022-08-26T13:11:59.234Z,32.10
2022-08-26T13:14:31.199Z,32.10
2022-08-26T13:16:59.924Z,32.10
2022-08-26T13:19:29.965Z,32.10
2022-08-26T13:21:59.783Z,32.00
2022-08-26T13:24:33.616Z,31.90
2022-08-26T13:27:03.006Z,31.90
2022-08-26T13:32:01.830Z,31.90
2022-08-26T13:34:31.021Z,31.90
2022-08-26T13:36:59.921Z,31.70
2022-08-26T13:39:30.462Z,31.60
2022-08-26T13:42:00.320Z,31.50
2022-08-26T13:44:29.121Z,31.40
2022-08-26T13:46:57.885Z,31.40
2022-08-26T13:49:26.923Z,31.30
2022-08-26T13:51:55.588Z,31.30
2022-08-26T13:54:24.410Z,31.30
2022-08-26T13:56:54.474Z,31.30
2022-08-26T13:59:23.268Z,31.40
2022-08-26T14:01:52.057Z,31.40
2022-08-26T14:04:27.187Z,31.50
2022-08-26T14:06:56.310Z,31.60
2022-08-26T14:09:25.097Z,31.50
2022-08-26T14:11:55.419Z,31.60
2022-08-26T14:14:25.119Z,31.60
2022-08-26T14:17:00.026Z,31.70
2022-08-26T14:19:29.711Z,31.90
2022-08-26T14:22:01.114Z,31.90
2022-08-26T14:24:30.429Z,32.00
2022-08-26T14:27:00.552Z,32.20
2022-08-26T14:29:29.307Z,32.30
2022-08-26T14:31:58.917Z,32.40
2022-08-26T14:34:27.687Z,32.40
2022-08-26T14:36:56.528Z,32.40
2022-08-26T14:39:25.617Z,32.30
2022-08-26T14:41:56.558Z,32.20
2022-08-26T14:44:28.200Z,32.00
2022-08-26T14:46:56.886Z,31.80
2022-08-26T14:49:27.346Z,31.60
2022-08-26T14:51:56.461Z,31.50
2022-08-26T14:54:25.314Z,31.30
2022-08-26T14:56:55.814Z,31.30
2022-08-26T14:59:25.521Z,31.10
2022-08-26T15:01:55.913Z,31.00
2022-08-26T15:04:25.329Z,30.90
2022-08-26T15:06:55.274Z,31.10
2022-08-26T15:09:24.118Z,31.10
2022-08-26T15:11:53.165Z,31.10
2022-08-26T15:14:22.061Z,31.10
2022-08-26T15:16:51.421Z,31.10
2022-08-26T15:19:23.248Z,31.10
2022-08-26T15:21:52.602Z,31.20
2022-08-26T15:24:22.355Z,31.20
2022-08-26T15:26:51.260Z,31.20
2022-08-26T15:29:20.337Z,31.10
2022-08-26T15:31:49.173Z,31.00
2022-08-26T15:34:17.988Z,30.90
2022-08-26T15:36:48.802Z,31.00
2022-08-26T15:39:17.923Z,31.10
2022-08-26T15:41:46.779Z,31.20
2022-08-26T15:44:16.983Z,31.40
2022-08-26T15:46:45.982Z,31.40
2022-08-26T15:49:18.527Z,31.50
2022-08-26T15:51:50.505Z,31.40
2022-08-26T15:54:20.702Z,31.10
2022-08-26T15:56:52.274Z,31.20
2022-08-26T15:59:22.153Z,31.20
2022-08-26T16:01:51.497Z,31.20
2022-08-26T16:04:20.425Z,31.20
2022-08-26T16:06:52.233Z,31.20
2022-08-26T16:09:23.867Z,31.10
2022-08-26T16:11:53.799Z,31.00
2022-08-26T16:14:22.506Z,30.80
2022-08-26T16:16:51.734Z,30.60
2022-08-26T16:19:21.088Z,30.30
2022-08-26T16:21:51.629Z,30.10
2022-08-26T16:24:25.920Z,30.00
2022-08-26T16:26:56.061Z,29.80
2022-08-26T16:29:25.867Z,29.60
2022-08-26T16:31:54.786Z,29.40
2022-08-26T16:34:23.692Z,29.30
2022-08-26T16:36:54.227Z,29.10
2022-08-26T16:39:22.919Z,28.90
2022-08-26T16:41:51.662Z,28.70
2022-08-26T16:44:22.058Z,28.50
2022-08-26T16:46:50.896Z,28.30
2022-08-26T16:49:27.178Z,28.20
2022-08-26T16:51:57.217Z,27.90
2022-08-26T16:54:26.302Z,27.80
2022-08-26T16:56:55.002Z,27.60
2022-08-26T16:59:24.126Z,27.40
2022-08-26T17:01:52.886Z,27.20
2022-08-26T17:04:22.041Z,27.00
2022-08-26T17:06:51.222Z,26.80
2022-08-26T17:09:40.350Z,26.60
2022-08-26T17:12:10.177Z,26.40
2022-08-26T17:14:38.954Z,26.20
2022-08-26T17:17:08.322Z,26.00
2022-08-26T17:19:40.930Z,25.80
2022-08-26T17:22:16.285Z,25.50
2022-08-26T17:24:46.281Z,25.30
2022-08-26T17:27:15.266Z,25.10
2022-08-26T17:29:44.652Z,24.90
2022-08-26T17:32:13.432Z,24.80
2022-08-26T17:34:42.561Z,24.50
2022-08-26T17:37:11.224Z,24.40
2022-08-26T17:39:43.946Z,24.20
2022-08-26T17:42:14.016Z,24.00
2022-08-26T17:44:42.805Z,23.80
2022-08-26T17:47:11.461Z,23.70
2022-08-26T17:49:40.816Z,23.50
2022-08-26T17:52:11.580Z,23.30
2022-08-26T17:54:40.355Z,23.20
2022-08-26T17:57:10.814Z,23.00
2022-08-26T17:59:41.494Z,23.10
2022-08-26T18:02:10.195Z,22.70
2022-08-26T18:04:38.878Z,22.50
2022-08-26T18:07:07.676Z,22.40
2022-08-26T18:09:36.831Z,22.30
2022-08-26T18:12:05.736Z,22.20
2022-08-26T18:17:05.438Z,21.90
2022-08-26T18:19:34.163Z,21.80
2022-08-26T18:22:02.800Z,21.70
2022-08-26T18:24:32.287Z,21.60
2022-08-26T18:27:00.999Z,21.50
2022-08-26T18:29:29.606Z,21.40
2022-08-26T18:31:58.334Z,21.30
2022-08-26T18:34:31.634Z,21.30
2022-08-26T18:37:01.130Z,21.20
2022-08-26T18:39:29.862Z,21.20
2022-08-26T18:41:58.858Z,21.10
2022-08-26T18:44:27.421Z,21.00
2022-08-26T18:46:56.161Z,21.00
2022-08-26T18:49:24.766Z,20.90
2022-08-26T18:51:54.905Z,20.80
2022-08-26T18:54:23.597Z,20.80
2022-08-26T18:56:52.442Z,20.70
2022-08-26T18:59:29.634Z,20.70
2022-08-26T19:01:59.640Z,20.60
2022-08-26T19:04:28.592Z,20.60
2022-08-26T19:06:58.506Z,20.50
2022-08-26T19:09:27.385Z,20.50
2022-08-26T19:14:25.254Z,20.50
2022-08-26T19:16:54.277Z,20.40
2022-08-26T19:19:24.633Z,20.30
2022-08-26T19:21:53.803Z,20.30
2022-08-26T19:24:27.285Z,20.30
2022-08-26T19:26:58.400Z,20.20
2022-08-26T19:29:29.084Z,20.30
2022-08-26T19:31:57.902Z,20.10
2022-08-26T19:34:26.684Z,20.10
2022-08-26T19:36:56.934Z,20.10
2022-08-26T19:39:27.667Z,20.00
2022-08-26T19:41:58.049Z,19.90
2022-08-26T19:44:44.406Z,20.00
2022-08-26T19:47:15.965Z,19.90
2022-08-26T19:49:45.755Z,19.80
2022-08-26T19:52:14.506Z,19.80
2022-08-26T19:54:44.442Z,19.60
2022-08-26T19:57:13.048Z,19.70
2022-08-26T19:59:42.259Z,19.60
2022-08-26T20:02:11.599Z,19.60
2022-08-26T20:04:41.651Z,19.60
2022-08-26T20:07:14.218Z,19.60
2022-08-26T20:09:48.674Z,19.60
2022-08-26T20:12:17.414Z,19.60
2022-08-26T20:14:46.059Z,19.70
2022-08-26T20:17:28.859Z,19.80
2022-08-26T20:20:28.498Z,19.90
2022-08-26T20:23:03.729Z,19.90
2022-08-26T20:25:34.416Z,19.80
2022-08-26T20:28:03.508Z,19.80
2022-08-26T20:30:32.296Z,19.90
2022-08-26T20:33:01.074Z,19.80
2022-08-26T20:35:29.659Z,19.80
2022-08-26T20:37:58.279Z,19.80
2022-08-26T20:40:27.297Z,19.80
2022-08-26T20:42:57.303Z,19.70
2022-08-26T20:45:27.161Z,19.80
2022-08-26T20:47:56.370Z,19.80
2022-08-26T20:50:26.149Z,19.80
2022-08-26T20:52:54.767Z,19.70
2022-08-26T20:55:23.685Z,19.70
2022-08-26T20:57:52.490Z,19.60
2022-08-26T21:00:24.588Z,19.60
2022-08-26T21:02:56.678Z,19.50
2022-08-26T21:05:25.423Z,19.50
2022-08-26T21:07:54.087Z,19.40
2022-08-26T21:10:23.095Z,19.30
2022-08-26T21:12:52.273Z,19.20
2022-08-26T21:15:22.384Z,19.20
2022-08-26T21:17:51.183Z,19.10
2022-08-26T21:20:20.791Z,19.10
2022-08-26T21:22:50.199Z,19.00
2022-08-26T21:25:19.398Z,19.00
2022-08-26T21:27:48.077Z,18.90
2022-08-26T21:30:17.073Z,18.90
2022-08-26T21:32:47.123Z,18.90
2022-08-26T21:35:15.882Z,18.90
2022-08-26T21:37:44.539Z,18.90
2022-08-26T21:40:13.541Z,18.90
2022-08-26T21:42:42.416Z,18.90
2022-08-26T21:45:11.405Z,18.90
2022-08-26T21:47:40.837Z,18.80
2022-08-26T21:50:11.071Z,18.80
2022-08-26T21:52:39.755Z,18.80
2022-08-26T21:55:09.277Z,18.70
2022-08-26T21:57:40.938Z,18.70
2022-08-26T22:00:11.624Z,18.70
2022-08-26T22:02:40.486Z,18.70
2022-08-26T22:05:11.176Z,18.70
2022-08-26T22:07:39.876Z,18.70
2022-08-26T22:10:08.769Z,18.70
2022-08-26T22:12:38.075Z,18.70
2022-08-26T22:15:07.291Z,18.70
2022-08-26T22:17:36.088Z,18.70
2022-08-26T22:20:05.246Z,18.70
2022-08-26T22:22:41.691Z,18.70
2022-08-26T22:25:11.598Z,18.60
2022-08-26T22:27:40.531Z,18.60
2022-08-26T22:30:11.897Z,18.60
2022-08-26T22:32:40.510Z,18.60
2022-08-26T22:35:28.062Z,18.60
2022-08-26T22:37:59.896Z,18.50
2022-08-26T22:40:28.771Z,18.50
2022-08-26T22:42:58.829Z,18.50
2022-08-26T22:45:29.385Z,18.50
2022-08-26T22:47:58.594Z,18.50
2022-08-26T22:50:27.842Z,18.50
2022-08-26T22:52:56.428Z,18.50
2022-08-26T22:55:26.726Z,18.50
2022-08-26T22:57:55.385Z,18.50
2022-08-26T23:00:31.877Z,18.40
2022-08-26T23:03:01.353Z,18.40
2022-08-26T23:05:31.036Z,18.30
2022-08-26T23:07:59.771Z,18.30
2022-08-26T23:10:29.767Z,18.30
2022-08-26T23:12:59.024Z,18.30
2022-08-26T23:15:27.763Z,18.30
2022-08-26T23:18:09.697Z,18.20
2022-08-26T23:20:38.806Z,18.20
2022-08-26T23:23:07.973Z,18.20
2022-08-26T23:25:37.996Z,18.20
2022-08-26T23:28:06.599Z,18.20
2022-08-26T23:30:35.579Z,18.20
2022-08-26T23:33:04.222Z,18.30
2022-08-26T23:35:31.996Z,18.10
2022-08-26T23:38:01.845Z,18.10
2022-08-26T23:40:32.344Z,18.10
2022-08-26T23:43:03.540Z,18.10
2022-08-26T23:45:32.777Z,18.10
2022-08-26T23:50:45.212Z,18.00
2022-08-26T23:53:19.406Z,18.00
2022-08-26T23:55:49.277Z,18.00
2022-08-26T23:58:20.483Z,18.00
